Aérodrome :
LOGIN :

S'inscrire | Disclaimer

   EN    FR    IT 

 










Légende :    VFR   VFR Marginal   IFR   IFR Intensif   IFR Très Intensif
Visi : 
Plafond : 
>= 8 km
>= 3000ft
5 à 8 km
1000 à 3000 ft
1500m à 5 km
500 à 1000 ft
800 à 1500m
200 à 500 ft
< 800m
< 200 ft
Symboles :   Orages  Brouillard  Fortes neiges  Fortes précipitations  Vent > 20 kt
SIGMETs :   Divers  Orages  Givrage  Turbulence  Onde Orograph.  Cendres Volcan.






- Altitude de l'aérodrome : 538 ft
- Code IATA : TNF


LFPN - Toussus Le Noble

DERNIER METAR :
  • 250600Z AUTO 29011KT 9999 FEW008 SCT022 BKN048 01/00 Q1002 TEMPO 2000 -SHSN BKN007 SCT015TCU

METARs EXPIRÉS :
  • 250530Z AUTO 29010KT 9999 BKN007 OVC049 01/00 Q1001 TEMPO 2000 -SHSN BKN007 SCT015TCU
  • 250500Z AUTO 28008KT 9999 BKN006 01/M00 Q1001
  • 250430Z AUTO 27010KT 9999 OVC007 01/00 Q1001
  • 250400Z AUTO 28010KT 9999 OVC007 01/00 Q1000

TAF TAF LFPN
Valide du 25 à 06h jusqu'au 25 à 15h UTC


250500Z 2506/2515 28010KT 9999 BKN011 BKN020
TEMPO 2506/2509 4000 -SHRASN BKN007 SCT015TCU
PROB30 2506/2509 2000 -SHSN BKN004
BECMG 2509/2511 34010KT BKN016
BECMG 2511/2513 CAVOK
ATIS : +33 1 39 56 54 70



MET'MAP, la Météo Aéronautique d'un coup d'oeil ! - Copyright ORBIFLY Décembre 2007 - Disclaimer

ORBIFLY MET'MAP TEAM :

Programmation & Développement : Alexandra Zaïnal
Sur une idée originale de : Baudouin d'Aumeries
Assistance à la programmation : Marc-Olivier Méhu
Soutien technique & logistique : Manuel Goepfert

Contact : metmap@orbifly.com




SOURCES & CREDITS :

   NOAA